sensor_id;sensor_type;location;lat;lon;timestamp;pressure;altitude;pressure_sealevel;temperature;humidity
4012;BME280;2020;48.682;9.024;2023-05-12T00:02:10;96136.94;;;9.95;100.00
4012;BME280;2020;48.682;9.024;2023-05-12T00:04:35;96133.66;;;9.93;100.00
4012;BME280;2020;48.682;9.024;2023-05-12T00:07:01;96136.94;;;9.95;100.00
4012;BME280;2020;48.682;9.024;2023-05-12T00:09:27;96138.56;;;9.97;100.00
4012;BME280;2020;48.682;9.024;2023-05-12T00:11:53;96135.31;;;9.94;100.00
4012;BME280;2020;48.682;9.024;2023-05-12T00:14:18;96126.53;;;9.95;100.00
4012;BME280;2020;48.682;9.024;2023-05-12T00:16:44;96131.03;;;9.85;100.00
4012;BME280;2020;48.682;9.024;2023-05-12T00:19:11;96131.97;;;9.76;100.00
4012;BME280;2020;48.682;9.024;2023-05-12T00:21:36;96127.63;;;9.76;100.00
4012;BME280;2020;48.682;9.024;2023-05-12T00:24:02;96126.78;;;9.76;100.00
4012;BME280;2020;48.682;9.024;2023-05-12T00:26:27;96122.91;;;9.80;100.00
4012;BME280;2020;48.682;9.024;2023-05-12T00:28:52;96119.00;;;9.84;100.00
4012;BME280;2020;48.682;9.024;2023-05-12T00:31:18;96113.81;;;9.84;100.00
4012;BME280;2020;48.682;9.024;2023-05-12T00:33:43;96125.84;;;9.85;100.00
4012;BME280;2020;48.682;9.024;2023-05-12T00:36:08;96122.25;;;9.86;100.00
4012;BME280;2020;48.682;9.024;2023-05-12T00:38:33;96117.38;;;9.83;100.00
4012;BME280;2020;48.682;9.024;2023-05-12T00:41:01;96111.22;;;9.84;100.00
4012;BME280;2020;48.682;9.024;2023-05-12T00:43:26;96121.59;;;9.84;100.00
4012;BME280;2020;48.682;9.024;2023-05-12T00:45:51;96120.31;;;9.88;100.00
4012;BME280;2020;48.682;9.024;2023-05-12T00:48:17;96122.25;;;9.86;100.00
4012;BME280;2020;48.682;9.024;2023-05-12T00:50:42;96120.94;;;9.82;100.00
4012;BME280;2020;48.682;9.024;2023-05-12T00:53:08;96119.31;;;9.81;100.00
4012;BME280;2020;48.682;9.024;2023-05-12T00:55:33;96122.56;;;9.83;100.00
4012;BME280;2020;48.682;9.024;2023-05-12T00:57:59;96119.00;;;9.84;100.00
4012;BME280;2020;48.682;9.024;2023-05-12T01:00:24;96117.38;;;9.83;100.00
4012;BME280;2020;48.682;9.024;2023-05-12T01:02:49;96115.13;;;9.88;100.00
4012;BME280;2020;48.682;9.024;2023-05-12T01:05:15;96109.59;;;9.91;100.00
4012;BME280;2020;48.682;9.024;2023-05-12T01:07:41;96108.97;;;9.98;100.00
4012;BME280;2020;48.682;9.024;2023-05-12T01:10:19;96109.31;;;9.94;100.00
4012;BME280;2020;48.682;9.024;2023-05-12T01:12:45;96109.91;;;9.88;100.00
4012;BME280;2020;48.682;9.024;2023-05-12T01:15:11;96112.19;;;9.83;100.00
4012;BME280;2020;48.682;9.024;2023-05-12T01:17:39;96112.66;;;9.78;100.00
4012;BME280;2020;48.682;9.024;2023-05-12T01:20:07;96110.56;;;9.82;100.00
4012;BME280;2020;48.682;9.024;2023-05-12T01:22:33;96113.81;;;9.84;100.00
4012;BME280;2020;48.682;9.024;2023-05-12T01:25:04;96112.19;;;9.83;100.00
4012;BME280;2020;48.682;9.024;2023-05-12T01:27:32;96119.31;;;9.81;100.00
4012;BME280;2020;48.682;9.024;2023-05-12T01:29:59;96119.19;;;9.83;100.00
4012;BME280;2020;48.682;9.024;2023-05-12T01:32:25;96114.44;;;9.78;100.00
4012;BME280;2020;48.682;9.024;2023-05-12T01:34:51;96106.97;;;9.75;100.00
4012;BME280;2020;48.682;9.024;2023-05-12T01:37:17;96106.00;;;9.76;100.00
4012;BME280;2020;48.682;9.024;2023-05-12T01:39:42;96108.44;;;9.77;100.00
4012;BME280;2020;48.682;9.024;2023-05-12T01:42:08;96101.97;;;9.82;100.00
4012;BME280;2020;48.682;9.024;2023-05-12T01:44:33;96107.47;;;9.78;100.00
4012;BME280;2020;48.682;9.024;2023-05-12T01:46:58;96100.78;;;9.76;100.00
4012;BME280;2020;48.682;9.024;2023-05-12T01:49:24;96112.81;;;9.77;100.00
4012;BME280;2020;48.682;9.024;2023-05-12T01:51:49;96105.03;;;9.77;100.00
4012;BME280;2020;48.682;9.024;2023-05-12T01:54:15;96101.13;;;9.73;100.00
4012;BME280;2020;48.682;9.024;2023-05-12T01:56:40;96112.47;;;9.72;100.00
4012;BME280;2020;48.682;9.024;2023-05-12T01:59:06;96105.63;;;9.62;100.00
4012;BME280;2020;48.682;9.024;2023-05-12T02:01:31;96117.66;;;9.63;100.00
4012;BME280;2020;48.682;9.024;2023-05-12T02:03:57;96115.38;;;9.60;100.00
4012;BME280;2020;48.682;9.024;2023-05-12T02:06:23;96114.06;;;9.56;100.00
4012;BME280;2020;48.682;9.024;2023-05-12T02:08:48;96113.09;;;9.57;100.00
4012;BME280;2020;48.682;9.024;2023-05-12T02:11:14;96108.22;;;9.54;100.00
4012;BME280;2020;48.682;9.024;2023-05-12T02:13:39;96113.72;;;9.51;100.00
4012;BME280;2020;48.682;9.024;2023-05-12T02:16:05;96106.75;;;9.51;100.00
4012;BME280;2020;48.682;9.024;2023-05-12T02:18:30;96109.84;;;9.55;100.00
4012;BME280;2020;48.682;9.024;2023-05-12T02:20:55;96105.94;;;9.51;100.00
4012;BME280;2020;48.682;9.024;2023-05-12T02:23:20;96104.63;;;9.55;100.00
4012;BME280;2020;48.682;9.024;2023-05-12T02:25:46;96103.97;;;9.53;100.00
4012;BME280;2020;48.682;9.024;2023-05-12T02:28:11;96099.44;;;9.55;100.00
4012;BME280;2020;48.682;9.024;2023-05-12T02:30:37;96105.28;;;9.57;100.00
4012;BME280;2020;48.682;9.024;2023-05-12T02:33:02;96103.31;;;9.51;100.00
4012;BME280;2020;48.682;9.024;2023-05-12T02:35:30;96104.63;;;9.55;100.00
4012;BME280;2020;48.682;9.024;2023-05-12T02:37:55;96110.81;;;9.54;100.00
4012;BME280;2020;48.682;9.024;2023-05-12T02:40:20;96103.00;;;9.54;100.00
4012;BME280;2020;48.682;9.024;2023-05-12T02:42:46;96111.16;;;9.59;100.00
4012;BME280;2020;48.682;9.024;2023-05-12T02:45:11;96099.97;;;9.59;100.00
4012;BME280;2020;48.682;9.024;2023-05-12T02:47:37;96100.75;;;9.59;100.00
4012;BME280;2020;48.682;9.024;2023-05-12T02:50:02;96102.38;;;9.60;100.00
4012;BME280;2020;48.682;9.024;2023-05-12T02:52:28;96100.09;;;9.57;100.00
4012;BME280;2020;48.682;9.024;2023-05-12T02:54:53;96095.88;;;9.56;100.00
4012;BME280;2020;48.682;9.024;2023-05-12T02:57:20;96101.59;;;9.60;100.00
4012;BME280;2020;48.682;9.024;2023-05-12T02:59:45;96097.50;;;9.57;100.00
4012;BME280;2020;48.682;9.024;2023-05-12T03:02:11;96093.94;;;9.58;100.00
4012;BME280;2020;48.682;9.024;2023-05-12T03:04:36;96102.38;;;9.60;100.00
4012;BME280;2020;48.682;9.024;2023-05-12T03:07:01;96099.13;;;9.58;100.00
4012;BME280;2020;48.682;9.024;2023-05-12T03:09:26;96107.91;;;9.57;100.00
4012;BME280;2020;48.682;9.024;2023-05-12T03:11:52;96101.91;;;9.57;100.00
4012;BME280;2020;48.682;9.024;2023-05-12T03:14:17;96100.75;;;9.59;100.00
4012;BME280;2020;48.682;9.024;2023-05-12T03:16:42;96097.50;;;9.57;100.00
4012;BME280;2020;48.682;9.024;2023-05-12T03:19:07;96101.25;;;9.55;100.00
4012;BME280;2020;48.682;9.024;2023-05-12T03:21:33;96104.94;;;9.44;100.00
4012;BME280;2020;48.682;9.024;2023-05-12T03:23:58;96104.59;;;9.39;100.00
4012;BME280;2020;48.682;9.024;2023-05-12T03:26:23;96101.00;;;9.40;100.00
4012;BME280;2020;48.682;9.024;2023-05-12T03:28:49;96104.91;;;9.35;100.00
4012;BME280;2020;48.682;9.024;2023-05-12T03:31:14;96107.16;;;9.30;100.00
4012;BME280;2020;48.682;9.024;2023-05-12T03:33:39;96106.50;;;9.28;100.00
4012;BME280;2020;48.682;9.024;2023-05-12T03:36:04;96111.72;;;9.36;100.00
4012;BME280;2020;48.682;9.024;2023-05-12T03:38:30;96109.78;;;9.39;100.00
4012;BME280;2020;48.682;9.024;2023-05-12T03:41:05;96105.25;;;9.41;100.00
4012;BME280;2020;48.682;9.024;2023-05-12T03:43:31;96103.28;;;9.34;100.00
4012;BME280;2020;48.682;9.024;2023-05-12T03:45:56;96103.28;;;9.34;100.00
4012;BME280;2020;48.682;9.024;2023-05-12T03:48:22;96100.38;;;9.38;100.00
4012;BME280;2020;48.682;9.024;2023-05-12T03:50:47;96099.25;;;9.40;100.00
4012;BME280;2020;48.682;9.024;2023-05-12T03:53:13;96099.06;;;9.42;100.00
4012;BME280;2020;48.682;9.024;2023-05-12T03:55:38;96098.09;;;9.43;100.00
4012;BME280;2020;48.682;9.024;2023-05-12T03:58:03;96102.66;;;9.41;100.00
4012;BME280;2020;48.682;9.024;2023-05-12T04:00:28;96104.94;;;9.44;100.00
4012;BME280;2020;48.682;9.024;2023-05-12T04:02:54;96096.81;;;9.47;100.00
4012;BME280;2020;48.682;9.024;2023-05-12T04:05:19;96096.13;;;9.36;100.00
4012;BME280;2020;48.682;9.024;2023-05-12T04:07:44;96101.34;;;9.36;100.00
4012;BME280;2020;48.682;9.024;2023-05-12T04:10:10;96096.13;;;9.36;100.00
4012;BME280;2020;48.682;9.024;2023-05-12T04:12:35;96097.09;;;9.35;100.00
4012;BME280;2020;48.682;9.024;2023-05-12T04:15:00;96088.53;;;9.35;100.00
4012;BME280;2020;48.682;9.024;2023-05-12T04:17:26;96097.44;;;9.41;100.00
4012;BME280;2020;48.682;9.024;2023-05-12T04:19:51;96097.13;;;9.44;100.00
4012;BME280;2020;48.682;9.024;2023-05-12T04:22:17;96106.41;;;9.46;100.00
4012;BME280;2020;48.682;9.024;2023-05-12T04:24:42;96102.34;;;9.44;100.00
4012;BME280;2020;48.682;9.024;2023-05-12T04:27:08;96101.22;;;9.46;100.00
4012;BME280;2020;48.682;9.024;2023-05-12T04:29:33;96106.91;;;9.50;100.00
4012;BME280;2020;48.682;9.024;2023-05-12T04:31:58;96110.47;;;9.49;100.00
4012;BME280;2020;48.682;9.024;2023-05-12T04:34:24;96103.66;;;9.48;100.00
4012;BME280;2020;48.682;9.024;2023-05-12T04:36:49;96108.53;;;9.51;100.00
4012;BME280;2020;48.682;9.024;2023-05-12T04:39:15;96104.97;;;9.52;100.00
4012;BME280;2020;48.682;9.024;2023-05-12T04:41:40;96106.25;;;9.56;100.00
4012;BME280;2020;48.682;9.024;2023-05-12T04:44:06;96108.88;;;9.56;100.00
4012;BME280;2020;48.682;9.024;2023-05-12T04:46:31;96114.06;;;9.56;100.00
4012;BME280;2020;48.682;9.024;2023-05-12T04:48:56;96118.28;;;9.57;100.00
4012;BME280;2020;48.682;9.024;2023-05-12T04:51:22;96112.28;;;9.57;100.00
4012;BME280;2020;48.682;9.024;2023-05-12T04:53:47;96116.34;;;9.59;100.00
4012;BME280;2020;48.682;9.024;2023-05-12T04:56:12;96121.84;;;9.56;100.00
4012;BME280;2020;48.682;9.024;2023-05-12T04:58:37;96118.59;;;9.54;100.00
4012;BME280;2020;48.682;9.024;2023-05-12T05:01:03;96120.84;;;9.49;100.00
4012;BME280;2020;48.682;9.024;2023-05-12T05:03:28;96121.38;;;9.53;100.00
4012;BME280;2020;48.682;9.024;2023-05-12T05:05:53;96126.06;;;9.49;100.00
4012;BME280;2020;48.682;9.024;2023-05-12T05:08:19;96126.75;;;9.59;100.00
4012;BME280;2020;48.682;9.024;2023-05-12T05:10:44;96126.41;;;9.54;100.00
4012;BME280;2020;48.682;9.024;2023-05-12T05:13:09;96122.81;;;9.55;100.00
4012;BME280;2020;48.682;9.024;2023-05-12T05:15:35;96122.81;;;9.55;100.00
4012;BME280;2020;48.682;9.024;2023-05-12T05:18:00;96121.53;;;9.59;100.00
4012;BME280;2020;48.682;9.024;2023-05-12T05:20:25;96128.03;;;9.63;100.00
4012;BME280;2020;48.682;9.024;2023-05-12T05:22:52;96130.19;;;9.68;100.00
4012;BME280;2020;48.682;9.024;2023-05-12T05:25:17;96134.56;;;9.68;100.00
4012;BME280;2020;48.682;9.024;2023-05-12T05:27:43;96130.34;;;9.75;100.00
4012;BME280;2020;48.682;9.024;2023-05-12T05:30:08;96128.41;;;9.77;100.00
4012;BME280;2020;48.682;9.024;2023-05-12T05:32:37;96139.13;;;9.74;100.00
4012;BME280;2020;48.682;9.024;2023-05-12T05:35:04;96135.56;;;9.75;100.00
4012;BME280;2020;48.682;9.024;2023-05-12T05:37:30;96135.88;;;9.80;100.00
4012;BME280;2020;48.682;9.024;2023-05-12T05:39:55;96138.81;;;9.85;100.00
4012;BME280;2020;48.682;9.024;2023-05-12T05:42:21;96142.72;;;9.89;100.00
4012;BME280;2020;48.682;9.024;2023-05-12T05:44:46;96146.94;;;9.82;100.00
4012;BME280;2020;48.682;9.024;2023-05-12T05:47:11;96147.59;;;9.84;100.00
4012;BME280;2020;48.682;9.024;2023-05-12T05:49:36;96145.31;;;9.81;100.00
4012;BME280;2020;48.682;9.024;2023-05-12T05:52:02;96141.44;;;9.85;100.00
4012;BME280;2020;48.682;9.024;2023-05-12T05:54:27;96139.78;;;9.84;100.00
4012;BME280;2020;48.682;9.024;2023-05-12T05:56:52;96146.00;;;9.91;100.00
4012;BME280;2020;48.682;9.024;2023-05-12T05:59:18;96149.22;;;9.85;100.00
4012;BME280;2020;48.682;9.024;2023-05-12T06:01:43;96139.78;;;9.84;100.00
4012;BME280;2020;48.682;9.024;2023-05-12T06:04:09;96147.25;;;9.79;100.00
4012;BME280;2020;48.682;9.024;2023-05-12T06:06:35;96142.72;;;9.89;100.00
4012;BME280;2020;48.682;9.024;2023-05-12T06:09:00;96150.59;;;9.98;100.00
4012;BME280;2020;48.682;9.024;2023-05-12T06:11:25;96151.25;;;10.08;100.00
4012;BME280;2020;48.682;9.024;2023-05-12T06:13:50;96155.81;;;10.14;100.00
4012;BME280;2020;48.682;9.024;2023-05-12T06:16:16;96149.63;;;10.07;100.00
4012;BME280;2020;48.682;9.024;2023-05-12T06:18:41;96153.53;;;10.11;100.00
4012;BME280;2020;48.682;9.024;2023-05-12T06:21:07;96160.19;;;10.22;100.00
4012;BME280;2020;48.682;9.024;2023-05-12T06:23:32;96168.19;;;10.29;100.00
4012;BME280;2020;48.682;9.024;2023-05-12T06:25:58;96171.75;;;10.28;99.43
4012;BME280;2020;48.682;9.024;2023-05-12T06:28:23;96166.22;;;10.31;99.54
4012;BME280;2020;48.682;9.024;2023-05-12T06:30:48;96169.66;;;10.39;99.28
4012;BME280;2020;48.682;9.024;2023-05-12T06:33:13;96166.91;;;10.41;98.36
4012;BME280;2020;48.682;9.024;2023-05-12T06:35:39;96162.00;;;10.38;96.37
4012;BME280;2020;48.682;9.024;2023-05-12T06:38:04;96155.69;;;10.41;97.99
4012;BME280;2020;48.682;9.024;2023-05-12T06:40:29;96165.94;;;10.50;96.93
4012;BME280;2020;48.682;9.024;2023-05-12T06:42:55;96164.66;;;10.46;97.28
4012;BME280;2020;48.682;9.024;2023-05-12T06:45:20;96160.41;;;10.53;97.55
4012;BME280;2020;48.682;9.024;2023-05-12T06:47:47;96163.53;;;10.65;95.89
4012;BME280;2020;48.682;9.024;2023-05-12T06:50:12;96165.63;;;10.70;96.68
4012;BME280;2020;48.682;9.024;2023-05-12T06:52:39;96162.38;;;10.68;96.08
4012;BME280;2020;48.682;9.024;2023-05-12T06:55:05;96172.13;;;10.74;96.24
4012;BME280;2020;48.682;9.024;2023-05-12T06:57:31;96170.81;;;10.78;95.71
4012;BME280;2020;48.682;9.024;2023-05-12T06:59:56;96167.22;;;10.88;94.53
4012;BME280;2020;48.682;9.024;2023-05-12T07:02:21;96168.38;;;10.85;94.79
4012;BME280;2020;48.682;9.024;2023-05-12T07:04:46;96162.69;;;10.81;93.34
4012;BME280;2020;48.682;9.024;2023-05-12T07:07:12;96162.69;;;10.65;93.75
4012;BME280;2020;48.682;9.024;2023-05-12T07:09:37;96160.75;;;10.67;94.54
4012;BME280;2020;48.682;9.024;2023-05-12T07:12:05;96163.19;;;10.68;94.91
4012;BME280;2020;48.682;9.024;2023-05-12T07:14:30;96157.81;;;10.78;93.21
4012;BME280;2020;48.682;9.024;2023-05-12T07:16:56;96162.00;;;11.04;96.07
4012;BME280;2020;48.682;9.024;2023-05-12T07:19:21;96165.25;;;10.98;92.84
4012;BME280;2020;48.682;9.024;2023-05-12T07:21:46;96165.22;;;11.15;94.40
4012;BME280;2020;48.682;9.024;2023-05-12T07:24:12;96162.28;;;11.18;94.30
4012;BME280;2020;48.682;9.024;2023-05-12T07:26:38;96160.66;;;11.17;96.20
4012;BME280;2020;48.682;9.024;2023-05-12T07:29:03;96159.03;;;11.16;97.88
4012;BME280;2020;48.682;9.024;2023-05-12T07:31:29;96168.47;;;11.25;98.35
4012;BME280;2020;48.682;9.024;2023-05-12T07:33:55;96170.75;;;11.20;97.00
4012;BME280;2020;48.682;9.024;2023-05-12T07:36:20;96176.97;;;11.27;96.83
4012;BME280;2020;48.682;9.024;2023-05-12T07:38:46;96170.75;;;11.36;98.95
4012;BME280;2020;48.682;9.024;2023-05-12T07:41:11;96164.84;;;11.43;96.88
4012;BME280;2020;48.682;9.024;2023-05-12T07:43:36;96168.78;;;11.38;95.75
4012;BME280;2020;48.682;9.024;2023-05-12T07:46:02;96169.72;;;11.46;95.14
4012;BME280;2020;48.682;9.024;2023-05-12T07:48:27;96169.72;;;11.46;95.46
4012;BME280;2020;48.682;9.024;2023-05-12T07:50:52;96161.59;;;11.40;95.04
4012;BME280;2020;48.682;9.024;2023-05-12T07:53:18;96161.25;;;11.52;97.43
4012;BME280;2020;48.682;9.024;2023-05-12T07:55:44;96166.28;;;11.53;96.11
4012;BME280;2020;48.682;9.024;2023-05-12T07:58:09;96165.19;;;11.39;96.93
4012;BME280;2020;48.682;9.024;2023-05-12T08:00:35;96166.16;;;11.47;96.92
4012;BME280;2020;48.682;9.024;2023-05-12T08:03:01;96161.69;;;11.55;94.72
4012;BME280;2020;48.682;9.024;2023-05-12T08:05:26;96170.38;;;11.48;92.82
4012;BME280;2020;48.682;9.024;2023-05-12T08:07:51;96171.03;;;11.50;93.10
4012;BME280;2020;48.682;9.024;2023-05-12T08:10:16;96163.16;;;11.58;92.07
4012;BME280;2020;48.682;9.024;2023-05-12T08:12:43;96166.09;;;11.63;93.14
4012;BME280;2020;48.682;9.024;2023-05-12T08:15:09;96165.56;;;12.08;93.61
4012;BME280;2020;48.682;9.024;2023-05-12T08:17:34;96172.47;;;12.47;92.94
4012;BME280;2020;48.682;9.024;2023-05-12T08:20:00;96172.94;;;12.74;94.91
4012;BME280;2020;48.682;9.024;2023-05-12T08:22:28;96166.81;;;12.67;89.84
4012;BME280;2020;48.682;9.024;2023-05-12T08:24:53;96168.44;;;12.68;89.13
4012;BME280;2020;48.682;9.024;2023-05-12T08:27:18;96158.44;;;12.48;85.00
4012;BME280;2020;48.682;9.024;2023-05-12T08:29:44;96161.59;;;12.43;85.66
4012;BME280;2020;48.682;9.024;2023-05-12T08:32:10;96163.53;;;12.18;85.90
4012;BME280;2020;48.682;9.024;2023-05-12T08:34:35;96172.44;;;12.01;86.98
4012;BME280;2020;48.682;9.024;2023-05-12T08:37:01;96169.25;;;11.82;90.18
4012;BME280;2020;48.682;9.024;2023-05-12T08:39:26;96173.09;;;11.94;89.29
4012;BME280;2020;48.682;9.024;2023-05-12T08:44:31;96169.69;;;12.25;95.13
4012;BME280;2020;48.682;9.024;2023-05-12T08:46:57;96172.31;;;12.25;93.98
4012;BME280;2020;48.682;9.024;2023-05-12T08:49:25;96167.38;;;12.31;92.64
4012;BME280;2020;48.682;9.024;2023-05-12T08:51:53;96167.38;;;12.31;88.69
4012;BME280;2020;48.682;9.024;2023-05-12T08:54:21;96171.56;;;12.40;91.25
4012;BME280;2020;48.682;9.024;2023-05-12T08:56:46;96175.75;;;12.26;87.02
4012;BME280;2020;48.682;9.024;2023-05-12T08:59:12;96172.00;;;12.20;86.18
4012;BME280;2020;48.682;9.024;2023-05-12T09:01:38;96173.13;;;12.26;89.71
4012;BME280;2020;48.682;9.024;2023-05-12T09:04:07;96176.19;;;12.29;86.78
4012;BME280;2020;48.682;9.024;2023-05-12T09:06:32;96177.00;;;12.30;88.89
4012;BME280;2020;48.682;9.024;2023-05-12T09:08:58;96172.53;;;12.16;87.19
4012;BME280;2020;48.682;9.024;2023-05-12T09:11:24;96171.06;;;12.13;89.23
4012;BME280;2020;48.682;9.024;2023-05-12T09:14:03;96181.22;;;11.99;85.16
4012;BME280;2020;48.682;9.024;2023-05-12T09:16:38;96174.06;;;12.02;87.27
4012;BME280;2020;48.682;9.024;2023-05-12T09:19:05;96173.44;;;11.91;85.27
4012;BME280;2020;48.682;9.024;2023-05-12T09:21:31;96180.03;;;11.79;86.84
4012;BME280;2020;48.682;9.024;2023-05-12T09:24:03;96174.72;;;11.95;89.01
4012;BME280;2020;48.682;9.024;2023-05-12T09:26:30;96177.31;;;12.04;88.09
4012;BME280;2020;48.682;9.024;2023-05-12T09:29:04;96174.22;;;12.08;87.24
4012;BME280;2020;48.682;9.024;2023-05-12T09:31:33;96172.66;;;12.22;84.91
4012;BME280;2020;48.682;9.024;2023-05-12T09:33:58;96177.00;;;12.30;84.46
4012;BME280;2020;48.682;9.024;2023-05-12T09:36:24;96169.69;;;12.25;84.43
4012;BME280;2020;48.682;9.024;2023-05-12T09:38:59;96171.25;;;12.35;84.09
4012;BME280;2020;48.682;9.024;2023-05-12T09:41:28;96172.09;;;12.35;81.27
4012;BME280;2020;48.682;9.024;2023-05-12T09:43:53;96177.13;;;12.37;82.17
4012;BME280;2020;48.682;9.024;2023-05-12T09:46:19;96176.81;;;12.32;84.13
4012;BME280;2020;48.682;9.024;2023-05-12T09:48:47;96174.44;;;12.45;85.29
4012;BME280;2020;48.682;9.024;2023-05-12T09:51:16;96177.69;;;12.47;82.71
4012;BME280;2020;48.682;9.024;2023-05-12T09:53:44;96173.75;;;12.51;84.70
4012;BME280;2020;48.682;9.024;2023-05-12T09:56:15;96171.44;;;12.56;84.18
4012;BME280;2020;48.682;9.024;2023-05-12T09:58:42;96170.13;;;12.61;84.74
4012;BME280;2020;48.682;9.024;2023-05-12T10:01:10;96172.94;;;12.74;84.55
4012;BME280;2020;48.682;9.024;2023-05-12T10:03:36;96173.31;;;12.71;82.10
4012;BME280;2020;48.682;9.024;2023-05-12T10:06:05;96171.19;;;12.90;83.92
4012;BME280;2020;48.682;9.024;2023-05-12T10:08:43;96176.25;;;13.06;83.16
4012;BME280;2020;48.682;9.024;2023-05-12T10:11:09;96171.22;;;13.20;84.11
4012;BME280;2020;48.682;9.024;2023-05-12T10:13:35;96177.81;;;13.30;81.25
4012;BME280;2020;48.682;9.024;2023-05-12T10:16:01;96173.03;;;13.34;84.10
4012;BME280;2020;48.682;9.024;2023-05-12T10:18:26;96169.59;;;13.19;78.26
4012;BME280;2020;48.682;9.024;2023-05-12T10:20:52;96173.91;;;13.11;79.60
4012;BME280;2020;48.682;9.024;2023-05-12T10:23:21;96170.03;;;13.22;78.20
4012;BME280;2020;48.682;9.024;2023-05-12T10:25:48;96172.31;;;13.40;79.21
4012;BME280;2020;48.682;9.024;2023-05-12T10:28:13;96166.38;;;13.47;78.43
4012;BME280;2020;48.682;9.024;2023-05-12T10:30:39;96167.91;;;13.56;81.52
4012;BME280;2020;48.682;9.024;2023-05-12T10:33:05;96164.84;;;13.67;79.85
4012;BME280;2020;48.682;9.024;2023-05-12T10:35:37;96175.84;;;13.63;76.42
4012;BME280;2020;48.682;9.024;2023-05-12T10:38:08;96173.78;;;13.58;79.56
4012;BME280;2020;48.682;9.024;2023-05-12T10:40:34;96169.38;;;13.58;77.47
4012;BME280;2020;48.682;9.024;2023-05-12T10:42:59;96163.47;;;13.41;74.32
4012;BME280;2020;48.682;9.024;2023-05-12T10:45:25;96162.78;;;13.48;78.87
4012;BME280;2020;48.682;9.024;2023-05-12T10:47:51;96159.00;;;13.50;78.78
4012;BME280;2020;48.682;9.024;2023-05-12T10:50:26;96162.78;;;13.48;76.47
4012;BME280;2020;48.682;9.024;2023-05-12T10:52:53;96155.19;;;13.53;76.39
4012;BME280;2020;48.682;9.024;2023-05-12T10:55:29;96163.13;;;13.44;73.29
4012;BME280;2020;48.682;9.024;2023-05-12T10:58:03;96162.41;;;13.51;75.45
4012;BME280;2020;48.682;9.024;2023-05-12T11:00:29;96158.25;;;13.41;73.86
4012;BME280;2020;48.682;9.024;2023-05-12T11:02:54;96162.06;;;13.54;75.62
4012;BME280;2020;48.682;9.024;2023-05-12T11:05:19;96163.13;;;13.44;72.68
4012;BME280;2020;48.682;9.024;2023-05-12T11:07:48;96164.03;;;13.52;75.48
4012;BME280;2020;48.682;9.024;2023-05-12T11:10:14;96162.06;;;13.54;74.10
4012;BME280;2020;48.682;9.024;2023-05-12T11:12:42;96151.84;;;13.59;74.86
4012;BME280;2020;48.682;9.024;2023-05-12T11:15:08;96168.63;;;13.50;75.05
4012;BME280;2020;48.682;9.024;2023-05-12T11:17:37;96160.78;;;13.50;77.21
4012;BME280;2020;48.682;9.024;2023-05-12T11:20:02;96164.75;;;13.45;77.55
4012;BME280;2020;48.682;9.024;2023-05-12T11:22:28;96167.78;;;13.34;77.26
4012;BME280;2020;48.682;9.024;2023-05-12T11:24:53;96173.75;;;13.28;77.98
4012;BME280;2020;48.682;9.024;2023-05-12T11:27:20;96175.38;;;13.29;76.03
4012;BME280;2020;48.682;9.024;2023-05-12T11:29:57;96174.22;;;13.47;78.93
4012;BME280;2020;48.682;9.024;2023-05-12T11:32:22;96175.75;;;13.56;75.61
4012;BME280;2020;48.682;9.024;2023-05-12T11:34:48;96167.75;;;13.57;75.59
4012;BME280;2020;48.682;9.024;2023-05-12T11:37:13;96179.72;;;13.52;74.55
4012;BME280;2020;48.682;9.024;2023-05-12T11:39:40;96175.59;;;13.57;74.52
4012;BME280;2020;48.682;9.024;2023-05-12T11:42:06;96174.84;;;13.64;75.11
4012;BME280;2020;48.682;9.024;2023-05-12T11:44:35;96173.41;;;13.61;74.24
4012;BME280;2020;48.682;9.024;2023-05-12T11:49:47;96169.06;;;13.68;74.60
4012;BME280;2020;48.682;9.024;2023-05-12T11:52:13;96179.66;;;13.45;76.96
4012;BME280;2020;48.682;9.024;2023-05-12T11:54:39;96179.38;;;13.55;80.58
4012;BME280;2020;48.682;9.024;2023-05-12T11:57:11;96182.78;;;13.70;81.00
4012;BME280;2020;48.682;9.024;2023-05-12T11:59:36;96171.94;;;13.73;79.99
4012;BME280;2020;48.682;9.024;2023-05-12T12:02:03;96186.72;;;13.96;80.98
4012;BME280;2020;48.682;9.024;2023-05-12T12:07:00;96204.22;;;13.81;81.61
4012;BME280;2020;48.682;9.024;2023-05-12T12:09:30;96200.53;;;13.60;84.95
4012;BME280;2020;48.682;9.024;2023-05-12T12:11:56;96206.00;;;13.35;87.15
4012;BME280;2020;48.682;9.024;2023-05-12T12:14:21;96216.22;;;12.92;91.36
4012;BME280;2020;48.682;9.024;2023-05-12T12:16:46;96213.31;;;12.86;96.48
4012;BME280;2020;48.682;9.024;2023-05-12T12:19:11;96205.78;;;12.92;95.95
4012;BME280;2020;48.682;9.024;2023-05-12T12:21:37;96208.22;;;12.70;99.67
4012;BME280;2020;48.682;9.024;2023-05-12T12:24:03;96215.88;;;12.95;100.00
4012;BME280;2020;48.682;9.024;2023-05-12T12:26:29;96214.25;;;12.94;100.00
4012;BME280;2020;48.682;9.024;2023-05-12T12:28:54;96211.13;;;12.75;100.00
4012;BME280;2020;48.682;9.024;2023-05-12T12:31:20;96218.00;;;12.91;100.00
4012;BME280;2020;48.682;9.024;2023-05-12T12:33:45;96209.59;;;12.81;99.10
4012;BME280;2020;48.682;9.024;2023-05-12T12:36:10;96211.13;;;12.75;96.35
4012;BME280;2020;48.682;9.024;2023-05-12T12:38:35;96216.22;;;12.92;95.13
4012;BME280;2020;48.682;9.024;2023-05-12T12:41:00;96215.16;;;13.01;97.08
4012;BME280;2020;48.682;9.024;2023-05-12T12:43:26;96221.38;;;13.00;96.00
4012;BME280;2020;48.682;9.024;2023-05-12T12:45:51;96212.63;;;12.93;94.92
4012;BME280;2020;48.682;9.024;2023-05-12T12:48:18;96222.38;;;12.99;94.95
4012;BME280;2020;48.682;9.024;2023-05-12T12:50:44;96225.00;;;13.14;97.93
4012;BME280;2020;48.682;9.024;2023-05-12T12:53:09;96225.25;;;13.04;94.88
4012;BME280;2020;48.682;9.024;2023-05-12T12:55:34;96211.56;;;13.02;94.29
4012;BME280;2020;48.682;9.024;2023-05-12T12:58:00;96221.09;;;12.95;92.98
4012;BME280;2020;48.682;9.024;2023-05-12T13:00:25;96220.09;;;12.96;94.35
4012;BME280;2020;48.682;9.024;2023-05-12T13:02:51;96223.34;;;12.98;93.94
4012;BME280;2020;48.682;9.024;2023-05-12T13:05:16;96216.22;;;12.92;92.96
4012;BME280;2020;48.682;9.024;2023-05-12T13:07:42;96219.13;;;12.97;92.82
4012;BME280;2020;48.682;9.024;2023-05-12T13:10:08;96230.84;;;13.01;90.54
4012;BME280;2020;48.682;9.024;2023-05-12T13:12:34;96229.56;;;12.97;90.16
4012;BME280;2020;48.682;9.024;2023-05-12T13:15:00;96222.91;;;13.09;88.81
4012;BME280;2020;48.682;9.024;2023-05-12T13:17:26;96216.16;;;13.15;88.05
4012;BME280;2020;48.682;9.024;2023-05-12T13:19:51;96225.66;;;13.31;89.85
4012;BME280;2020;48.682;9.024;2023-05-12T13:22:17;96216.69;;;13.49;90.37
4012;BME280;2020;48.682;9.024;2023-05-12T13:24:42;96217.66;;;13.78;88.07